Аэропорт: Ленкорань. Ленкорань

ICAO: UBBL

METAR:
2020-10-23 11:00:00
UBBL 231100Z 11007KT 9999 SCT028 SCT100 21/15 Q1024 R33/CLRD// NOSIG RMK MT OP
METAR:
2020-10-23 05:09:00
TAF UBBL 230509Z 2306/2406 02005KT 9000 NSC TX20/2310Z TN10/2402Z TEMPO 2306/2310 VRB04KT FEW030 BECMG 2310/2312 14006KT BECMG 2315/2317 VRB04KT 6000 TEMPO 2317/2403 3000 BR FEW007 BECMG 2403/2405 14008KT 9000